Time;durP1;ratioP1;P1;durP2;ratioP2;P2;SDS_P1;SDS_P2;PMS_P1;PMS_P2;Temp;Humidity;BMP_temperature;BMP_pressure;BME280_temperature;BME280_humidity;BME280_pressure;Samples;Min_cycle;Max_cycle;Signal;HPM_P1;HPM_P2
2021/09/22 00:00:40;;;;;;;11.65;7.18;;;;;;;13.85;70.05;102930.41;5090030;28;20499;-63
2021/09/22 00:03:08;;;;;;;12.57;7.25;;;;;;;13.80;70.22;102928.41;5085375;28;20188;-62
2021/09/22 00:05:37;;;;;;;12.55;7.85;;;;;;;13.76;70.23;102934.63;5089640;28;20059;-63
2021/09/22 00:08:05;;;;;;;10.55;6.72;;;;;;;13.75;70.42;102927.44;5094705;28;20048;-64
2021/09/22 00:10:33;;;;;;;11.48;6.93;;;;;;;13.77;70.51;102930.78;5093950;28;20410;-64
2021/09/22 00:13:02;;;;;;;11.13;7.47;;;;;;;13.79;70.26;102923.16;5093194;28;20052;-64
2021/09/22 00:15:30;;;;;;;10.55;6.68;;;;;;;13.80;70.46;102922.09;5094127;28;20043;-62
2021/09/22 00:17:58;;;;;;;9.85;6.53;;;;;;;13.81;70.38;102919.13;5094635;28;20548;-64
2021/09/22 00:20:27;;;;;;;10.15;6.57;;;;;;;13.83;70.14;102916.97;5093659;28;20032;-64
2021/09/22 00:23:03;;;;;;;13.93;7.00;;;;;;;13.85;70.00;102916.72;5094681;28;20067;-63
2021/09/22 00:25:36;;;;;;;11.70;6.60;;;;;;;13.83;70.18;102924.38;5093399;28;20052;-65
2021/09/22 00:28:06;;;;;;;12.10;7.13;;;;;;;13.78;70.50;102916.00;5094282;28;20102;-64
2021/09/22 00:30:35;;;;;;;10.13;6.95;;;;;;;13.75;70.55;102913.75;5084433;28;20048;-59
2021/09/22 00:33:08;;;;;;;13.10;6.65;;;;;;;13.76;70.49;102915.44;5094258;28;20147;-62
2021/09/22 00:35:37;;;;;;;12.75;8.32;;;;;;;13.76;70.62;102919.00;5094511;28;20036;-63
2021/09/22 00:38:06;;;;;;;13.63;8.32;;;;;;;13.73;70.42;102915.88;5094457;28;20116;-64
2021/09/22 00:40:35;;;;;;;15.25;7.93;;;;;;;13.67;70.62;102914.13;5090006;28;20040;-61
2021/09/22 00:43:03;;;;;;;15.15;8.63;;;;;;;13.62;70.68;102917.56;5091192;28;20037;-63
2021/09/22 00:45:31;;;;;;;14.15;7.85;;;;;;;13.59;70.94;102918.88;5094175;28;20050;-61
2021/09/22 00:47:59;;;;;;;11.63;7.82;;;;;;;13.55;71.37;102923.16;5093830;28;20111;-63
2021/09/22 00:50:35;;;;;;;17.43;9.63;;;;;;;13.52;71.65;102918.16;5092826;28;20075;-64
2021/09/22 00:53:04;;;;;;;14.68;9.70;;;;;;;13.54;71.38;102926.97;5092069;28;20330;-62
2021/09/22 00:55:35;;;;;;;13.63;7.60;;;;;;;13.55;71.68;102922.31;5085859;28;20048;-64
2021/09/22 00:58:26;;;;;;;18.65;9.27;;;;;;;13.58;71.14;102919.94;5092271;28;20081;-64
2021/09/22 01:00:55;;;;;;;15.95;9.38;;;;;;;13.55;71.41;102928.63;5093728;28;20135;-63
2021/09/22 01:03:24;;;;;;;13.18;7.45;;;;;;;13.50;71.75;102925.78;5079349;28;20111;-62
2021/09/22 01:05:54;;;;;;;15.45;8.35;;;;;;;13.51;71.96;102921.94;5092143;28;20134;-64
2021/09/22 01:08:22;;;;;;;15.25;8.07;;;;;;;13.56;71.65;102926.72;5093615;28;20034;-64
2021/09/22 01:10:51;;;;;;;12.73;8.02;;;;;;;13.58;71.60;102913.63;5089042;28;20101;-64
2021/09/22 01:13:19;;;;;;;17.15;8.07;;;;;;;13.56;71.39;102902.06;5088972;28;20036;-64
2021/09/22 01:15:48;;;;;;;14.73;8.15;;;;;;;13.50;71.50;102898.38;5093725;28;20067;-63
2021/09/22 01:18:19;;;;;;;14.93;8.55;;;;;;;13.49;71.65;102896.69;5092496;28;20040;-64
2021/09/22 01:20:54;;;;;;;23.15;8.13;;;;;;;13.47;71.45;102898.88;5093381;28;20086;-64
2021/09/22 01:23:26;;;;;;;12.20;7.90;;;;;;;13.44;72.02;102893.84;5084536;28;20044;-63
2021/09/22 01:26:00;;;;;;;18.13;7.95;;;;;;;13.43;71.62;102900.41;5092883;28;20043;-64
2021/09/22 01:28:29;;;;;;;12.63;7.50;;;;;;;13.40;71.68;102903.63;5092029;28;20056;-63
2021/09/22 01:31:03;;;;;;;19.75;8.27;;;;;;;13.37;71.73;102898.59;5072446;28;20127;-62
2021/09/22 01:33:37;;;;;;;14.60;7.97;;;;;;;13.37;72.23;102898.59;5093016;28;20528;-64
2021/09/22 01:36:13;;;;;;;13.00;7.47;;;;;;;13.37;72.15;102895.84;5092024;28;20043;-64
2021/09/22 01:38:44;;;;;;;14.88;8.00;;;;;;;13.39;71.89;102901.94;5059461;28;20131;-64
2021/09/22 01:41:16;;;;;;;13.65;8.00;;;;;;;13.39;71.90;102904.66;5089578;28;20044;-64
2021/09/22 01:44:01;;;;;;;14.07;8.30;;;;;;;13.36;72.28;102907.88;5086412;28;20044;-64
2021/09/22 01:46:52;;;;;;;12.43;7.22;;;;;;;13.35;72.05;102903.50;5094115;28;20040;-64
2021/09/22 01:49:31;;;;;;;11.88;7.38;;;;;;;13.33;71.87;102897.41;5092046;28;20044;-64
2021/09/22 01:52:07;;;;;;;14.50;7.85;;;;;;;13.32;71.94;102902.03;5086485;28;20087;-65
2021/09/22 01:54:49;;;;;;;11.77;7.35;;;;;;;13.31;71.98;102902.28;5079579;28;20059;-64
2021/09/22 01:57:20;;;;;;;11.80;8.18;;;;;;;13.32;72.06;102901.19;5091525;28;20064;-64
2021/09/22 01:59:50;;;;;;;13.50;7.95;;;;;;;13.31;71.91;102894.06;5086421;28;20101;-64
2021/09/22 02:02:38;;;;;;;12.13;7.15;;;;;;;13.33;72.01;102897.41;5029955;28;20112;-64
2021/09/22 02:05:28;;;;;;;11.45;7.13;;;;;;;13.32;72.12;102891.06;5013911;28;20045;-64
2021/09/22 02:08:17;;;;;;;16.95;9.18;;;;;;;13.26;71.75;102888.44;5029717;28;20108;-64
2021/09/22 02:10:51;;;;;;;13.43;7.95;;;;;;;13.19;71.56;102885.81;5024397;28;20133;-63
2021/09/22 02:13:22;;;;;;;11.23;6.93;;;;;;;13.14;71.78;102883.75;5013506;28;20081;-65
2021/09/22 02:15:50;;;;;;;11.90;7.93;;;;;;;13.14;72.15;102883.75;5029860;28;20049;-64
2021/09/22 02:18:31;;;;;;;12.20;7.60;;;;;;;13.09;71.98;102886.38;5029725;28;20045;-64
2021/09/22 02:21:00;;;;;;;12.55;7.63;;;;;;;13.10;72.31;102882.56;5007610;28;20068;-64
2021/09/22 02:23:33;;;;;;;14.82;8.02;;;;;;;13.09;72.18;102880.91;5013398;28;20045;-64
2021/09/22 02:26:06;;;;;;;11.40;7.80;;;;;;;13.11;71.90;102877.94;5013094;28;20057;-63
2021/09/22 02:28:38;;;;;;;15.60;7.97;;;;;;;13.09;71.68;102880.91;5029987;28;20096;-64
2021/09/22 02:31:07;;;;;;;14.23;8.77;;;;;;;13.04;72.33;102879.94;5012102;28;20046;-62
2021/09/22 02:33:59;;;;;;;11.90;7.85;;;;;;;12.97;71.97;102882.78;5029152;28;20073;-62
2021/09/22 02:36:28;;;;;;;12.60;7.80;;;;;;;12.94;72.87;102875.00;5011969;28;20168;-64
2021/09/22 02:38:59;;;;;;;12.23;7.32;;;;;;;12.98;72.95;102878.97;5038512;28;20052;-64
2021/09/22 02:41:30;;;;;;;11.13;7.38;;;;;;;13.02;72.10;102879.34;5086194;28;20054;-64
2021/09/22 02:44:00;;;;;;;12.65;7.85;;;;;;;13.00;72.57;102869.44;5070483;28;20048;-64
2021/09/22 02:46:41;;;;;;;15.35;8.18;;;;;;;13.00;72.77;102863.16;5090571;28;20386;-64
2021/09/22 02:49:09;;;;;;;11.05;7.63;;;;;;;13.05;72.66;102868.75;5090430;28;20074;-64
2021/09/22 02:51:39;;;;;;;13.55;7.72;;;;;;;13.13;72.27;102867.56;5089310;28;20040;-64
2021/09/22 02:54:07;;;;;;;13.05;8.00;;;;;;;13.19;72.30;102864.72;5079910;28;20048;-61
2021/09/22 02:56:44;;;;;;;14.90;7.88;;;;;;;13.24;71.58;102855.81;5090206;28;20040;-65
2021/09/22 02:59:13;;;;;;;11.73;7.47;;;;;;;13.26;71.57;102855.59;5090381;28;20036;-64
2021/09/22 03:01:47;;;;;;;13.30;7.70;;;;;;;13.25;71.25;102856.63;5090351;28;20047;-64
2021/09/22 03:04:17;;;;;;;14.43;7.55;;;;;;;13.21;71.68;102857.13;5088623;28;20058;-63
2021/09/22 03:06:46;;;;;;;11.32;7.53;;;;;;;13.19;71.70;102859.25;5090320;28;20032;-64
2021/09/22 03:09:15;;;;;;;15.60;8.77;;;;;;;13.17;71.42;102855.91;5088877;28;20036;-62
2021/09/22 03:11:43;;;;;;;13.45;7.78;;;;;;;13.17;71.31;102844.97;5090447;28;20044;-63
2021/09/22 03:14:12;;;;;;;12.57;7.55;;;;;;;13.14;71.12;102848.19;5084857;28;20059;-64
2021/09/22 03:16:48;;;;;;;12.57;7.82;;;;;;;13.14;71.47;102850.91;5090679;28;20050;-64
2021/09/22 03:19:17;;;;;;;12.48;8.30;;;;;;;13.16;71.25;102837.84;5089889;28;20052;-64
2021/09/22 03:21:46;;;;;;;12.13;8.02;;;;;;;13.17;71.48;102844.97;5089869;28;20048;-64
2021/09/22 03:24:14;;;;;;;16.63;8.27;;;;;;;13.17;71.08;102842.22;5088704;28;20044;-64
2021/09/22 03:26:43;;;;;;;19.13;8.23;;;;;;;13.18;71.34;102841.19;5090267;28;20055;-65
2021/09/22 03:29:13;;;;;;;14.02;8.73;;;;;;;13.17;71.07;102842.22;5089975;28;20114;-64
2021/09/22 03:31:46;;;;;;;14.13;8.80;;;;;;;13.15;71.28;102847.09;5091257;28;20048;-63
2021/09/22 03:34:14;;;;;;;15.07;9.45;;;;;;;13.14;71.10;102839.97;5089397;28;20048;-61
2021/09/22 03:36:43;;;;;;;14.95;9.27;;;;;;;13.10;71.21;102849.72;5079220;28;20044;-63
2021/09/22 03:39:13;;;;;;;13.77;9.05;;;;;;;13.09;71.35;102858.19;5089624;28;20056;-59
2021/09/22 03:41:41;;;;;;;14.02;9.00;;;;;;;13.08;70.74;102849.09;5075388;28;20051;-64
2021/09/22 03:44:10;;;;;;;14.10;8.80;;;;;;;13.07;71.07;102841.97;5096371;28;20048;-61
2021/09/22 03:46:42;;;;;;;14.00;9.02;;;;;;;13.06;70.67;102843.06;5112234;28;20036;-63
2021/09/22 03:49:11;;;;;;;16.13;8.95;;;;;;;13.06;71.20;102840.31;5094400;28;20097;-64
2021/09/22 03:51:39;;;;;;;14.82;9.95;;;;;;;13.04;70.67;102828.78;5094393;28;20040;-64
2021/09/22 03:54:08;;;;;;;14.63;9.82;;;;;;;13.03;70.69;102834.47;5094858;28;20036;-61
2021/09/22 03:56:37;;;;;;;15.90;9.00;;;;;;;13.02;70.80;102830.91;5088154;28;20036;-63
2021/09/22 03:59:05;;;;;;;15.30;10.10;;;;;;;13.01;70.96;102834.69;5089413;28;20051;-63
2021/09/22 04:01:34;;;;;;;14.43;9.90;;;;;;;13.01;70.82;102834.69;5093581;28;20132;-60
2021/09/22 04:04:03;;;;;;;14.05;9.25;;;;;;;13.02;70.79;102833.66;5093234;28;20047;-64
2021/09/22 04:06:31;;;;;;;15.05;9.35;;;;;;;13.04;71.11;102839.72;5091237;28;20048;-64
2021/09/22 04:09:00;;;;;;;16.45;11.63;;;;;;;13.03;70.80;102839.94;5093764;28;20051;-63
2021/09/22 04:11:29;;;;;;;18.77;12.30;;;;;;;13.00;70.61;102830.31;5093571;28;20044;-62
2021/09/22 04:13:58;;;;;;;16.63;11.63;;;;;;;12.96;70.90;102838.16;5093592;28;20047;-64
2021/09/22 04:16:26;;;;;;;18.27;11.45;;;;;;;12.92;70.69;102836.13;5093800;28;20056;-64
2021/09/22 04:18:55;;;;;;;17.17;11.23;;;;;;;12.92;71.26;102836.13;5091322;28;20059;-64
2021/09/22 04:21:23;;;;;;;15.70;10.55;;;;;;;12.93;71.43;102832.31;5093313;28;20048;-63
2021/09/22 04:23:51;;;;;;;17.13;10.77;;;;;;;12.92;70.75;102830.66;5093180;28;20066;-63
2021/09/22 04:26:20;;;;;;;16.98;11.55;;;;;;;12.93;70.46;102832.31;5091666;28;20557;-60
2021/09/22 04:28:57;;;;;;;13.52;9.00;;;;;;;12.89;70.58;102828.38;5093295;28;20048;-64
2021/09/22 04:31:44;;;;;;;19.85;11.07;;;;;;;12.82;71.35;102827.63;5094596;28;20036;-61
2021/09/22 04:34:31;;;;;;;14.13;9.27;;;;;;;12.82;71.43;102838.56;5081435;28;20044;-64
2021/09/22 04:37:18;;;;;;;18.60;11.70;;;;;;;12.80;71.38;102827.88;5092584;28;20059;-57
2021/09/22 04:40:09;;;;;;;17.10;11.50;;;;;;;12.79;70.96;102835.28;5094280;28;20117;-63
2021/09/22 04:42:57;;;;;;;20.77;13.05;;;;;;;12.77;70.87;102829.19;5093315;28;20033;-63
2021/09/22 04:45:48;;;;;;;16.83;11.30;;;;;;;12.77;71.09;102834.66;5094531;28;20044;-63
2021/09/22 04:48:35;;;;;;;20.02;12.90;;;;;;;12.75;70.47;102842.25;5092075;28;20032;-64
2021/09/22 04:51:22;;;;;;;17.40;10.32;;;;;;;12.75;71.13;102842.25;5092773;28;20044;-64
2021/09/22 04:54:09;;;;;;;16.58;10.77;;;;;;;12.72;70.50;102831.81;5092097;28;20040;-63
2021/09/22 04:56:56;;;;;;;15.20;9.65;;;;;;;12.67;71.22;102842.56;5079846;28;20036;-59
2021/09/22 04:59:43;;;;;;;16.17;10.38;;;;;;;12.67;71.27;102850.78;5092837;28;20113;-61
2021/09/22 05:02:30;;;;;;;15.52;10.25;;;;;;;12.67;71.06;102856.25;5093529;28;20036;-64
2021/09/22 05:05:18;;;;;;;14.73;10.52;;;;;;;12.68;71.25;102847.00;5093138;28;20024;-63
2021/09/22 05:08:05;;;;;;;17.15;11.52;;;;;;;12.69;71.23;102859.59;5092039;28;20048;-62
2021/09/22 05:10:55;;;;;;;15.80;10.68;;;;;;;12.65;70.83;102858.41;5093588;28;20042;-63
2021/09/22 05:13:43;;;;;;;16.08;11.20;;;;;;;12.60;70.45;102860.16;5093380;28;20043;-63
2021/09/22 05:16:29;;;;;;;18.17;9.68;;;;;;;12.55;71.23;102869.03;5093531;28;20040;-64
2021/09/22 05:19:21;;;;;;;14.38;9.70;;;;;;;12.52;71.07;102874.97;5039741;28;20046;-63
2021/09/22 05:22:08;;;;;;;12.75;8.63;;;;;;;12.52;70.74;102869.50;5042574;28;20048;-63
2021/09/22 05:24:55;;;;;;;14.70;9.88;;;;;;;12.50;71.70;102871.63;5050841;28;20049;-63
2021/09/22 05:27:43;;;;;;;18.65;10.02;;;;;;;12.46;71.70;102870.44;5050480;28;20053;-62
2021/09/22 05:30:31;;;;;;;19.08;10.13;;;;;;;12.36;71.15;102871.84;5050787;28;20053;-58
2021/09/22 05:33:18;;;;;;;18.00;11.70;;;;;;;12.30;71.36;102880.94;5052208;28;20064;-61
2021/09/22 05:36:05;;;;;;;12.73;9.55;;;;;;;12.26;72.01;102876.97;5050637;28;20051;-63
2021/09/22 05:38:51;;;;;;;15.55;9.95;;;;;;;12.24;71.58;102878.28;5039778;28;20057;-60
2021/09/22 05:41:40;;;;;;;16.80;10.50;;;;;;;12.25;71.63;102878.06;5050629;28;20052;-61
2021/09/22 05:44:26;;;;;;;16.75;10.68;;;;;;;12.30;71.86;102882.84;4351587;28;10000551;-56
2021/09/22 05:47:12;;;;;;;16.23;8.93;;;;;;;12.36;71.67;102881.91;5030960;28;20056;-57
2021/09/22 05:49:58;;;;;;;17.05;10.63;;;;;;;12.40;71.56;102880.38;5031482;28;20045;-56
2021/09/22 05:52:44;;;;;;;17.50;11.05;;;;;;;12.42;71.50;102880.16;5048266;28;20385;-57
2021/09/22 05:55:31;;;;;;;21.13;11.52;;;;;;;12.41;71.59;102881.22;5040559;28;20033;-57
2021/09/22 05:58:19;;;;;;;16.98;11.48;;;;;;;12.42;71.57;102874.72;5090709;28;20047;-58
2021/09/22 06:01:16;;;;;;;23.80;13.13;;;;;;;12.46;71.21;102882.22;5021276;28;20064;-55
2021/09/22 06:04:10;;;;;;;18.33;10.95;;;;;;;12.48;70.93;102884.69;5017068;28;20049;-60
2021/09/22 06:06:38;;;;;;;17.23;8.38;;;;;;;12.56;71.73;102889.88;5026748;28;20065;-54
2021/09/22 06:09:24;;;;;;;16.75;8.55;;;;;;;12.70;72.30;102899.56;5026830;28;20492;-58
2021/09/22 06:12:19;;;;;;;25.60;12.18;;;;;;;12.70;70.94;102894.09;5027044;28;20045;-57
2021/09/22 06:14:47;;;;;;;18.58;11.10;;;;;;;12.65;71.01;102901.31;5027247;28;20084;-56
2021/09/22 06:17:15;;;;;;;17.08;10.02;;;;;;;12.63;71.10;102901.56;5027438;28;20045;-59
2021/09/22 06:19:42;;;;;;;19.98;10.50;;;;;;;12.62;70.72;102891.66;5029502;28;20124;-58
2021/09/22 06:22:14;;;;;;;20.38;9.95;;;;;;;12.66;71.06;102890.16;5022092;28;20077;-55
2021/09/22 06:24:45;;;;;;;19.58;11.70;;;;;;;12.65;70.80;102885.75;5004395;28;20068;-58
2021/09/22 06:27:15;;;;;;;14.90;8.32;;;;;;;12.70;72.11;102894.09;5029150;28;20042;-57
2021/09/22 06:29:46;;;;;;;13.77;8.57;;;;;;;12.77;72.12;102899.47;5012995;28;20046;-56
2021/09/22 06:32:13;;;;;;;16.08;9.43;;;;;;;12.82;72.97;102896.03;5018243;28;20068;-55
2021/09/22 06:35:20;;;;;;;16.65;10.48;;;;;;;12.83;71.86;102904.00;4970573;28;20074;-56
2021/09/22 06:38:07;;;;;;;20.83;11.13;;;;;;;12.83;71.59;102914.97;4989259;28;20049;-58
2021/09/22 06:40:40;;;;;;;17.33;10.95;;;;;;;12.84;71.62;102902.09;5024480;28;20065;-58
2021/09/22 06:43:08;;;;;;;15.68;10.43;;;;;;;12.80;70.92;102912.69;5005828;28;20587;-59
2021/09/22 06:45:36;;;;;;;18.17;11.07;;;;;;;12.79;70.62;102914.59;5012130;28;20393;-58
2021/09/22 06:48:04;;;;;;;21.23;12.00;;;;;;;12.79;70.83;102911.88;5029046;28;20100;-56
2021/09/22 06:50:32;;;;;;;17.73;11.85;;;;;;;12.79;70.74;102913.75;5029064;28;20045;-58
2021/09/22 06:53:00;;;;;;;17.75;11.32;;;;;;;12.80;71.05;102915.44;5028841;28;20049;-58
2021/09/22 06:55:28;;;;;;;19.92;12.68;;;;;;;12.84;70.75;102904.84;5029398;28;20557;-59
2021/09/22 06:57:55;;;;;;;18.83;12.75;;;;;;;12.84;70.88;102904.84;5028906;28;20049;-57
2021/09/22 07:00:23;;;;;;;18.58;11.70;;;;;;;12.87;70.90;102907.09;5028942;28;20534;-56
2021/09/22 07:02:50;;;;;;;16.23;10.77;;;;;;;12.89;71.11;102904.97;5028751;28;20067;-56
2021/09/22 07:05:18;;;;;;;17.35;11.43;;;;;;;12.91;70.35;102902.84;5038859;28;20044;-57
2021/09/22 07:07:46;;;;;;;16.13;10.60;;;;;;;12.91;71.14;102895.47;5092832;28;20055;-58
2021/09/22 07:10:15;;;;;;;23.48;13.65;;;;;;;12.90;70.27;102903.94;5092831;28;20028;-57
2021/09/22 07:12:44;;;;;;;17.20;11.52;;;;;;;12.88;70.61;102900.59;5091358;28;20032;-58
2021/09/22 07:15:12;;;;;;;21.15;13.90;;;;;;;12.87;69.69;102898.91;5092389;28;20044;-55
2021/09/22 07:17:39;;;;;;;17.98;12.32;;;;;;;12.86;70.22;102913.66;5094763;28;20048;-58
2021/09/22 07:20:08;;;;;;;20.02;10.02;;;;;;;12.87;70.29;102912.56;5095742;28;20040;-55
2021/09/22 07:22:35;;;;;;;18.80;11.27;;;;;;;12.92;70.80;102916.31;5094297;28;20044;-57
2021/09/22 07:25:04;;;;;;;19.73;10.40;;;;;;;12.96;70.70;102916.66;5095882;28;20379;-53
2021/09/22 07:27:31;;;;;;;17.60;10.77;;;;;;;12.97;70.57;102919.19;5081793;28;20043;-57
2021/09/22 07:29:59;;;;;;;15.35;9.40;;;;;;;12.96;70.62;102912.06;5095655;28;20050;-57
2021/09/22 07:32:27;;;;;;;19.88;10.57;;;;;;;12.98;70.65;102911.78;5093563;28;20407;-58
2021/09/22 07:34:54;;;;;;;15.75;9.75;;;;;;;13.00;70.91;102926.09;5094962;28;20167;-58
2021/09/22 07:37:22;;;;;;;17.75;11.13;;;;;;;13.01;70.56;102914.06;5094040;28;20040;-59
2021/09/22 07:39:50;;;;;;;20.00;11.23;;;;;;;13.04;71.18;102921.00;5095518;28;20110;-56
2021/09/22 07:42:17;;;;;;;19.25;10.73;;;;;;;13.04;70.96;102919.09;5093376;28;20048;-56
2021/09/22 07:44:47;;;;;;;28.25;11.55;;;;;;;13.07;71.74;102918.63;5094940;28;20097;-57
2021/09/22 07:47:15;;;;;;;18.23;10.18;;;;;;;13.10;71.18;102914.56;5095407;28;20046;-57
2021/09/22 07:49:44;;;;;;;24.35;12.13;;;;;;;13.10;70.73;102909.09;5094931;28;20499;-60
2021/09/22 07:52:12;;;;;;;19.65;11.05;;;;;;;13.11;70.54;102910.78;5093665;28;20153;-52
2021/09/22 07:54:40;;;;;;;18.83;12.68;;;;;;;13.11;70.77;102906.13;5094733;28;20401;-57
2021/09/22 07:57:10;;;;;;;16.23;11.00;;;;;;;13.12;70.91;102906.97;5094890;28;20095;-57
2021/09/22 07:59:38;;;;;;;18.67;10.88;;;;;;;13.17;70.78;102902.44;5094375;28;20111;-60
2021/09/22 08:02:06;;;;;;;19.05;10.90;;;;;;;13.20;70.96;102899.25;5093113;28;20550;-58
2021/09/22 08:04:34;;;;;;;30.33;14.20;;;;;;;13.21;70.88;102892.72;5094601;28;20036;-58
2021/09/22 08:07:02;;;;;;;20.55;12.45;;;;;;;13.26;70.89;102902.13;5094558;28;20075;-57
2021/09/22 08:09:31;;;;;;;21.45;11.40;;;;;;;13.31;70.96;102899.53;5094766;28;20036;-54
2021/09/22 08:11:58;;;;;;;19.42;11.02;;;;;;;13.32;71.61;102901.19;5083058;28;20040;-58
2021/09/22 08:14:37;;;;;;;19.67;12.30;;;;;;;13.35;71.25;102898.84;5094420;28;20055;-56
2021/09/22 08:17:06;;;;;;;25.10;14.43;;;;;;;13.35;71.32;102892.53;5094497;28;20047;-51
2021/09/22 08:19:35;;;;;;;18.65;11.38;;;;;;;13.35;72.02;102898.84;5094592;28;20064;-56
2021/09/22 08:22:04;;;;;;;20.88;12.18;;;;;;;13.38;71.96;102900.28;5092824;28;20040;-57
2021/09/22 08:24:32;;;;;;;15.93;8.93;;;;;;;13.40;71.74;102903.63;5093202;28;20050;-55
2021/09/22 08:27:00;;;;;;;19.08;11.23;;;;;;;13.48;72.18;102899.69;5093859;28;20075;-58
2021/09/22 08:29:28;;;;;;;18.63;10.55;;;;;;;13.49;72.51;102904.09;5094443;28;20040;-60
2021/09/22 08:31:55;;;;;;;20.35;12.35;;;;;;;13.52;72.09;102900.91;5092743;28;20498;-58
2021/09/22 08:34:23;;;;;;;19.73;12.55;;;;;;;13.51;72.46;102902.78;5093986;28;20039;-59
2021/09/22 08:36:51;;;;;;;20.60;13.25;;;;;;;13.54;72.08;102904.19;5094170;28;20509;-60
2021/09/22 08:39:19;;;;;;;17.73;10.75;;;;;;;13.60;72.52;102906.84;5093771;28;20481;-61
2021/09/22 08:41:48;;;;;;;14.73;9.77;;;;;;;13.68;72.81;102904.81;5092791;28;20078;-60
2021/09/22 08:44:17;;;;;;;18.35;10.10;;;;;;;13.71;72.55;102902.44;5092762;28;20071;-60
2021/09/22 08:46:46;;;;;;;25.98;11.43;;;;;;;13.77;72.78;102906.97;5094354;28;20062;-60
2021/09/22 08:49:14;;;;;;;25.40;13.20;;;;;;;13.77;72.27;102903.41;5093940;28;20044;-61
2021/09/22 08:51:43;;;;;;;23.05;9.98;;;;;;;13.82;72.28;102903.50;5093654;28;20043;-59
2021/09/22 08:54:11;;;;;;;17.80;9.25;;;;;;;13.90;72.35;102900.38;5091990;28;20040;-60
2021/09/22 08:56:43;;;;;;;26.85;13.70;;;;;;;13.91;72.19;102901.25;5093470;28;20032;-59
2021/09/22 08:59:14;;;;;;;20.30;11.15;;;;;;;13.93;72.24;102901.84;5094046;28;20486;-59
2021/09/22 09:01:43;;;;;;;25.92;14.98;;;;;;;13.93;72.31;102899.09;5094042;28;20040;-59
2021/09/22 09:04:16;;;;;;;21.08;13.48;;;;;;;13.94;72.23;102895.28;5092913;28;20056;-59
2021/09/22 09:06:45;;;;;;;17.48;10.32;;;;;;;13.98;72.17;102893.75;5094254;28;20038;-59
2021/09/22 09:09:13;;;;;;;13.77;8.63;;;;;;;14.09;72.35;102889.31;5093447;28;20507;-56
2021/09/22 09:11:42;;;;;;;20.48;13.05;;;;;;;14.12;72.04;102886.06;5092970;28;20048;-58
2021/09/22 09:14:13;;;;;;;21.05;10.38;;;;;;;14.22;72.20;102887.13;5091556;28;20486;-59
2021/09/22 09:16:50;;;;;;;24.30;12.45;;;;;;;14.22;71.72;102889.06;5092983;28;20101;-60
2021/09/22 09:19:21;;;;;;;19.30;13.38;;;;;;;14.26;71.40;102884.72;5093480;28;20071;-60
2021/09/22 09:22:00;;;;;;;16.15;8.32;;;;;;;14.44;71.38;102891.97;5093033;28;20123;-60
2021/09/22 09:24:41;;;;;;;22.38;14.10;;;;;;;14.45;70.54;102888.97;5091659;28;20042;-60
2021/09/22 09:27:34;;;;;;;19.60;10.77;;;;;;;14.57;70.92;102886.22;5089868;28;20043;-56
2021/09/22 09:30:20;;;;;;;17.17;8.65;;;;;;;14.56;69.87;102890.03;5092935;28;20375;-59
2021/09/22 09:32:47;;;;;;;19.30;9.75;;;;;;;14.64;70.54;102886.91;5079097;28;20052;-59
2021/09/22 09:35:17;;;;;;;20.40;11.40;;;;;;;14.67;70.24;102880.09;5089989;28;20054;-59
2021/09/22 09:37:47;;;;;;;20.67;11.30;;;;;;;14.75;69.83;102881.63;5078635;28;20048;-59
2021/09/22 09:40:19;;;;;;;13.93;6.60;;;;;;;14.78;69.80;102872.91;5091892;28;20533;-60
2021/09/22 09:42:49;;;;;;;23.17;12.15;;;;;;;14.75;68.75;102876.97;5092961;28;20040;-59
2021/09/22 09:45:20;;;;;;;12.35;5.57;;;;;;;14.85;68.93;102868.91;5091411;28;20044;-61
2021/09/22 09:48:07;;;;;;;16.58;10.15;;;;;;;14.84;67.95;102870.00;5092645;28;20028;-59
2021/09/22 09:50:48;;;;;;;22.17;13.77;;;;;;;14.78;67.42;102857.25;5092665;28;20047;-59
2021/09/22 09:53:23;;;;;;;24.35;14.20;;;;;;;14.76;66.60;102867.66;5091387;28;20040;-53
2021/09/22 09:55:51;;;;;;;22.15;14.18;;;;;;;14.77;66.43;102872.06;5083855;28;20371;-58
2021/09/22 09:58:20;;;;;;;20.95;11.98;;;;;;;14.81;66.82;102865.00;5092842;28;20032;-57
2021/09/22 10:00:54;;;;;;;13.65;7.78;;;;;;;14.91;68.04;102862.44;5092821;28;20452;-55
2021/09/22 10:03:23;;;;;;;16.45;8.70;;;;;;;14.93;67.45;102862.19;5092356;28;20036;-57
2021/09/22 10:05:52;;;;;;;18.23;10.73;;;;;;;14.98;67.03;102854.03;5090786;28;20036;-60
2021/09/22 10:08:23;;;;;;;15.88;9.10;;;;;;;15.03;67.22;102854.16;5091610;28;20047;-53
2021/09/22 10:10:52;;;;;;;19.17;11.65;;;;;;;15.08;66.20;102858.88;5092757;28;20398;-58
2021/09/22 10:13:20;;;;;;;21.73;13.90;;;;;;;15.04;64.43;102852.22;5089195;28;20050;-58
2021/09/22 10:15:49;;;;;;;21.13;10.35;;;;;;;15.05;66.25;102854.72;5092567;28;20143;-59
2021/09/22 10:18:18;;;;;;;19.20;13.23;;;;;;;15.11;63.59;102852.91;5092160;28;20046;-57
2021/09/22 10:20:48;;;;;;;12.85;7.22;;;;;;;15.19;65.70;102857.16;5092421;28;20028;-58
2021/09/22 10:23:30;;;;;;;27.20;12.88;;;;;;;15.24;64.63;102852.56;5068205;28;20402;-58
2021/09/22 10:26:08;;;;;;;21.35;13.55;;;;;;;15.18;62.88;102848.09;5099774;27;1219342;-58
2021/09/22 10:28:48;;;;;;;20.10;13.38;;;;;;;15.18;62.83;102848.09;5068692;28;20727;-55
2021/09/22 10:31:29;;;;;;;18.60;12.25;;;;;;;15.17;62.09;102843.66;5099949;27;1233786;-59
2021/09/22 10:34:25;;;;;;;20.80;12.55;;;;;;;15.20;63.49;102848.66;5068471;28;20892;-59
2021/09/22 10:37:25;;;;;;;19.25;12.63;;;;;;;15.26;62.38;102850.41;5068265;28;20142;-57
2021/09/22 10:40:06;;;;;;;16.80;11.25;;;;;;;15.34;62.73;102841.75;5068841;28;20444;-57
2021/09/22 10:42:46;;;;;;;14.48;9.15;;;;;;;15.41;64.82;102830.56;5068872;28;20480;-57
2021/09/22 10:45:25;;;;;;;18.10;12.13;;;;;;;15.38;62.73;102822.84;5068705;28;21014;-59
2021/09/22 10:48:22;;;;;;;15.48;9.93;;;;;;;15.46;61.96;102835.31;5068919;28;20454;-59
2021/09/22 10:51:04;;;;;;;17.17;10.70;;;;;;;15.48;60.59;102830.41;5068244;28;20837;-59
2021/09/22 10:53:45;;;;;;;17.45;10.73;;;;;;;15.51;60.79;102829.91;5068558;28;20386;-58
2021/09/22 10:56:26;;;;;;;20.90;13.48;;;;;;;15.52;60.46;102826.09;5068801;28;20445;-58
2021/09/22 10:59:06;;;;;;;21.25;12.20;;;;;;;15.57;61.05;102833.56;5068961;28;20449;-58
2021/09/22 11:01:46;;;;;;;14.02;9.75;;;;;;;15.58;61.00;102829.72;5068227;28;20465;-55
2021/09/22 11:04:26;;;;;;;20.08;12.60;;;;;;;15.59;60.04;102832.22;5088716;27;20382;-53
2021/09/22 11:07:06;;;;;;;16.10;11.05;;;;;;;15.63;58.24;102825.13;5107932;27;1232756;-59
2021/09/22 11:09:45;;;;;;;16.92;11.52;;;;;;;15.66;57.49;102821.06;5068651;28;20473;-58
2021/09/22 11:12:33;;;;;;;17.30;12.30;;;;;;;15.71;58.81;102813.75;5068894;28;20889;-58
2021/09/22 11:15:12;;;;;;;17.58;12.27;;;;;;;15.73;59.12;102811.59;5109548;27;20323;-59
2021/09/22 11:17:52;;;;;;;16.48;11.05;;;;;;;15.76;59.45;102811.06;5069117;28;20445;-57
2021/09/22 11:20:31;;;;;;;21.65;10.55;;;;;;;15.80;58.27;102808.63;5068481;28;20406;-57
2021/09/22 11:23:12;;;;;;;16.50;9.13;;;;;;;15.83;56.12;102796.31;5068815;28;20988;-58
2021/09/22 11:25:53;;;;;;;18.05;10.68;;;;;;;15.85;56.42;102796.88;5069126;28;20394;-58
2021/09/22 11:28:34;;;;;;;17.65;9.90;;;;;;;15.91;56.54;102787.59;5069133;28;20391;-59
2021/09/22 11:31:12;;;;;;;15.40;10.05;;;;;;;15.93;56.67;102774.44;5095599;27;1224318;-55
2021/09/22 11:33:57;;;;;;;13.05;9.05;;;;;;;15.96;57.18;102773.91;5103744;27;1241534;-56
2021/09/22 11:36:37;;;;;;;15.57;10.18;;;;;;;16.00;57.01;102772.34;5068353;28;20150;-56
2021/09/22 11:39:25;;;;;;;14.82;9.48;;;;;;;16.02;55.57;102778.41;5068811;28;20995;-57
2021/09/22 11:42:08;;;;;;;14.85;9.27;;;;;;;16.03;56.00;102780.06;5068342;28;20398;-54
2021/09/22 11:44:51;;;;;;;15.27;9.55;;;;;;;16.05;55.12;102769.63;5101963;27;1237448;-58